sensor_id;sensor_type;location;lat;lon;timestamp;temperature;humidity
83770;DHT22;73763;48.936;9.300;2024-03-29T00:00:33;8.30;74.60
83770;DHT22;73763;48.936;9.300;2024-03-29T00:02:58;8.20;74.90
83770;DHT22;73763;48.936;9.300;2024-03-29T00:05:24;8.10;76.70
83770;DHT22;73763;48.936;9.300;2024-03-29T00:07:49;7.80;78.00
83770;DHT22;73763;48.936;9.300;2024-03-29T00:10:15;7.70;78.10
83770;DHT22;73763;48.936;9.300;2024-03-29T00:12:40;7.80;78.20
83770;DHT22;73763;48.936;9.300;2024-03-29T00:15:06;8.00;77.80
83770;DHT22;73763;48.936;9.300;2024-03-29T00:17:32;8.10;77.10
83770;DHT22;73763;48.936;9.300;2024-03-29T00:19:57;8.20;76.70
83770;DHT22;73763;48.936;9.300;2024-03-29T00:22:23;8.30;77.40
83770;DHT22;73763;48.936;9.300;2024-03-29T00:24:48;8.20;78.20
83770;DHT22;73763;48.936;9.300;2024-03-29T00:27:14;8.20;79.30
83770;DHT22;73763;48.936;9.300;2024-03-29T00:29:39;8.00;81.50
83770;DHT22;73763;48.936;9.300;2024-03-29T00:32:05;7.80;82.10
83770;DHT22;73763;48.936;9.300;2024-03-29T00:34:31;7.70;83.40
83770;DHT22;73763;48.936;9.300;2024-03-29T00:36:56;7.60;84.00
83770;DHT22;73763;48.936;9.300;2024-03-29T00:39:22;7.30;85.60
83770;DHT22;73763;48.936;9.300;2024-03-29T00:41:48;7.40;87.50
83770;DHT22;73763;48.936;9.300;2024-03-29T00:44:13;7.30;87.90
83770;DHT22;73763;48.936;9.300;2024-03-29T00:46:39;7.20;89.40
83770;DHT22;73763;48.936;9.300;2024-03-29T00:49:04;7.10;90.00
83770;DHT22;73763;48.936;9.300;2024-03-29T00:51:30;7.10;90.10
83770;DHT22;73763;48.936;9.300;2024-03-29T00:53:55;7.10;90.30
83770;DHT22;73763;48.936;9.300;2024-03-29T00:56:20;7.10;90.00
83770;DHT22;73763;48.936;9.300;2024-03-29T00:58:46;7.20;89.30
83770;DHT22;73763;48.936;9.300;2024-03-29T01:01:11;7.40;89.30
83770;DHT22;73763;48.936;9.300;2024-03-29T01:03:37;7.30;90.00
83770;DHT22;73763;48.936;9.300;2024-03-29T01:06:03;7.20;90.00
83770;DHT22;73763;48.936;9.300;2024-03-29T01:08:28;7.20;89.70
83770;DHT22;73763;48.936;9.300;2024-03-29T01:10:54;7.30;88.80
83770;DHT22;73763;48.936;9.300;2024-03-29T01:13:19;7.30;89.50
83770;DHT22;73763;48.936;9.300;2024-03-29T01:15:45;7.30;89.70
83770;DHT22;73763;48.936;9.300;2024-03-29T01:18:10;7.30;89.30
83770;DHT22;73763;48.936;9.300;2024-03-29T01:20:36;7.30;89.60
83770;DHT22;73763;48.936;9.300;2024-03-29T01:23:01;7.40;88.80
83770;DHT22;73763;48.936;9.300;2024-03-29T01:25:27;7.60;88.20
83770;DHT22;73763;48.936;9.300;2024-03-29T01:27:53;7.60;87.80
83770;DHT22;73763;48.936;9.300;2024-03-29T01:30:18;7.70;87.90
83770;DHT22;73763;48.936;9.300;2024-03-29T01:32:44;7.70;88.20
83770;DHT22;73763;48.936;9.300;2024-03-29T01:35:09;7.70;87.30
83770;DHT22;73763;48.936;9.300;2024-03-29T01:37:35;7.80;87.50
83770;DHT22;73763;48.936;9.300;2024-03-29T01:40:01;7.80;87.90
83770;DHT22;73763;48.936;9.300;2024-03-29T01:42:26;7.80;87.80
83770;DHT22;73763;48.936;9.300;2024-03-29T01:44:52;7.80;87.50
83770;DHT22;73763;48.936;9.300;2024-03-29T01:47:18;7.90;87.30
83770;DHT22;73763;48.936;9.300;2024-03-29T01:49:44;7.90;87.30
83770;DHT22;73763;48.936;9.300;2024-03-29T01:52:11;7.90;86.60
83770;DHT22;73763;48.936;9.300;2024-03-29T01:54:37;7.90;86.20
83770;DHT22;73763;48.936;9.300;2024-03-29T01:57:03;8.00;86.40
83770;DHT22;73763;48.936;9.300;2024-03-29T01:59:29;7.90;86.90
83770;DHT22;73763;48.936;9.300;2024-03-29T02:01:55;7.80;87.30
83770;DHT22;73763;48.936;9.300;2024-03-29T02:04:22;7.70;87.50
83770;DHT22;73763;48.936;9.300;2024-03-29T02:06:47;7.70;88.30
83770;DHT22;73763;48.936;9.300;2024-03-29T02:09:13;7.70;87.90
83770;DHT22;73763;48.936;9.300;2024-03-29T02:11:38;7.80;88.10
83770;DHT22;73763;48.936;9.300;2024-03-29T02:14:04;7.90;87.20
83770;DHT22;73763;48.936;9.300;2024-03-29T02:16:29;7.90;87.70
83770;DHT22;73763;48.936;9.300;2024-03-29T02:18:55;8.00;86.70
83770;DHT22;73763;48.936;9.300;2024-03-29T02:21:20;8.00;87.20
83770;DHT22;73763;48.936;9.300;2024-03-29T02:23:47;8.00;86.40
83770;DHT22;73763;48.936;9.300;2024-03-29T02:26:14;8.10;85.70
83770;DHT22;73763;48.936;9.300;2024-03-29T02:28:40;8.20;86.10
83770;DHT22;73763;48.936;9.300;2024-03-29T02:31:06;8.20;86.30
83770;DHT22;73763;48.936;9.300;2024-03-29T02:33:31;8.20;86.70
83770;DHT22;73763;48.936;9.300;2024-03-29T02:35:57;8.20;86.70
83770;DHT22;73763;48.936;9.300;2024-03-29T02:38:22;8.10;86.90
83770;DHT22;73763;48.936;9.300;2024-03-29T02:40:48;8.10;86.60
83770;DHT22;73763;48.936;9.300;2024-03-29T02:43:13;8.20;86.50
83770;DHT22;73763;48.936;9.300;2024-03-29T02:45:39;8.10;86.10
83770;DHT22;73763;48.936;9.300;2024-03-29T02:48:04;8.10;84.60
83770;DHT22;73763;48.936;9.300;2024-03-29T02:50:30;8.20;84.80
83770;DHT22;73763;48.936;9.300;2024-03-29T02:52:56;8.30;84.80
83770;DHT22;73763;48.936;9.300;2024-03-29T02:55:21;8.30;84.80
83770;DHT22;73763;48.936;9.300;2024-03-29T02:57:47;8.30;85.30
83770;DHT22;73763;48.936;9.300;2024-03-29T03:00:13;8.30;85.80
83770;DHT22;73763;48.936;9.300;2024-03-29T03:02:39;8.30;86.10
83770;DHT22;73763;48.936;9.300;2024-03-29T03:05:05;8.20;86.20
83770;DHT22;73763;48.936;9.300;2024-03-29T03:07:31;8.20;85.70
83770;DHT22;73763;48.936;9.300;2024-03-29T03:09:57;8.30;86.20
83770;DHT22;73763;48.936;9.300;2024-03-29T03:12:22;8.20;85.70
83770;DHT22;73763;48.936;9.300;2024-03-29T03:14:48;8.30;86.00
83770;DHT22;73763;48.936;9.300;2024-03-29T03:17:13;8.30;86.00
83770;DHT22;73763;48.936;9.300;2024-03-29T03:19:39;8.30;85.70
83770;DHT22;73763;48.936;9.300;2024-03-29T03:22:04;8.30;85.30
83770;DHT22;73763;48.936;9.300;2024-03-29T03:24:31;8.30;85.60
83770;DHT22;73763;48.936;9.300;2024-03-29T03:26:57;8.30;85.90
83770;DHT22;73763;48.936;9.300;2024-03-29T03:29:22;8.30;85.90
83770;DHT22;73763;48.936;9.300;2024-03-29T03:31:48;8.30;85.50
83770;DHT22;73763;48.936;9.300;2024-03-29T03:34:13;8.30;85.10
83770;DHT22;73763;48.936;9.300;2024-03-29T03:36:39;8.40;84.30
83770;DHT22;73763;48.936;9.300;2024-03-29T03:39:04;8.40;85.10
83770;DHT22;73763;48.936;9.300;2024-03-29T03:41:30;8.50;83.40
83770;DHT22;73763;48.936;9.300;2024-03-29T03:43:55;8.50;82.10
83770;DHT22;73763;48.936;9.300;2024-03-29T03:46:21;8.50;83.50
83770;DHT22;73763;48.936;9.300;2024-03-29T03:48:46;8.50;85.90
83770;DHT22;73763;48.936;9.300;2024-03-29T03:51:12;8.50;82.70
83770;DHT22;73763;48.936;9.300;2024-03-29T03:53:37;8.50;82.90
83770;DHT22;73763;48.936;9.300;2024-03-29T03:56:03;8.50;86.30
83770;DHT22;73763;48.936;9.300;2024-03-29T03:58:28;8.40;84.10
83770;DHT22;73763;48.936;9.300;2024-03-29T04:00:54;8.40;82.50
83770;DHT22;73763;48.936;9.300;2024-03-29T04:03:19;8.40;83.00
83770;DHT22;73763;48.936;9.300;2024-03-29T04:05:45;8.50;78.80
83770;DHT22;73763;48.936;9.300;2024-03-29T04:08:10;8.90;74.30
83770;DHT22;73763;48.936;9.300;2024-03-29T04:10:39;9.20;72.60
83770;DHT22;73763;48.936;9.300;2024-03-29T04:13:04;9.30;67.70
83770;DHT22;73763;48.936;9.300;2024-03-29T04:15:30;9.50;69.50
83770;DHT22;73763;48.936;9.300;2024-03-29T04:17:56;9.40;72.00
83770;DHT22;73763;48.936;9.300;2024-03-29T04:20:22;9.30;74.80
83770;DHT22;73763;48.936;9.300;2024-03-29T04:22:48;9.10;77.10
83770;DHT22;73763;48.936;9.300;2024-03-29T04:25:13;9.00;79.60
83770;DHT22;73763;48.936;9.300;2024-03-29T04:27:39;8.90;81.80
83770;DHT22;73763;48.936;9.300;2024-03-29T04:30:05;8.70;83.70
83770;DHT22;73763;48.936;9.300;2024-03-29T04:32:31;8.60;85.30
83770;DHT22;73763;48.936;9.300;2024-03-29T04:34:57;8.50;82.90
83770;DHT22;73763;48.936;9.300;2024-03-29T04:37:22;8.40;81.70
83770;DHT22;73763;48.936;9.300;2024-03-29T04:39:48;8.40;82.60
83770;DHT22;73763;48.936;9.300;2024-03-29T04:42:14;8.40;81.70
83770;DHT22;73763;48.936;9.300;2024-03-29T04:44:39;8.40;82.80
83770;DHT22;73763;48.936;9.300;2024-03-29T04:47:05;8.40;81.30
83770;DHT22;73763;48.936;9.300;2024-03-29T04:49:30;8.50;79.30
83770;DHT22;73763;48.936;9.300;2024-03-29T04:51:56;8.60;80.30
83770;DHT22;73763;48.936;9.300;2024-03-29T04:54:22;8.60;80.60
83770;DHT22;73763;48.936;9.300;2024-03-29T04:56:47;8.60;80.00
83770;DHT22;73763;48.936;9.300;2024-03-29T04:59:13;8.60;79.60
83770;DHT22;73763;48.936;9.300;2024-03-29T05:01:39;8.70;72.60
83770;DHT22;73763;48.936;9.300;2024-03-29T05:04:04;9.10;72.70
83770;DHT22;73763;48.936;9.300;2024-03-29T05:06:30;9.00;72.00
83770;DHT22;73763;48.936;9.300;2024-03-29T05:08:55;9.10;70.10
83770;DHT22;73763;48.936;9.300;2024-03-29T05:11:21;9.30;69.90
83770;DHT22;73763;48.936;9.300;2024-03-29T05:13:47;9.20;71.20
83770;DHT22;73763;48.936;9.300;2024-03-29T05:16:12;9.20;71.00
83770;DHT22;73763;48.936;9.300;2024-03-29T05:18:38;9.20;70.50
83770;DHT22;73763;48.936;9.300;2024-03-29T05:21:04;9.20;70.00
83770;DHT22;73763;48.936;9.300;2024-03-29T05:23:29;9.20;71.80
83770;DHT22;73763;48.936;9.300;2024-03-29T05:25:55;9.10;70.60
83770;DHT22;73763;48.936;9.300;2024-03-29T05:28:22;9.10;72.90
83770;DHT22;73763;48.936;9.300;2024-03-29T05:30:47;9.10;71.90
83770;DHT22;73763;48.936;9.300;2024-03-29T05:33:13;9.00;72.30
83770;DHT22;73763;48.936;9.300;2024-03-29T05:35:38;9.00;72.70
83770;DHT22;73763;48.936;9.300;2024-03-29T05:38:04;9.10;69.60
83770;DHT22;73763;48.936;9.300;2024-03-29T05:40:29;9.10;70.90
83770;DHT22;73763;48.936;9.300;2024-03-29T05:42:55;9.20;71.30
83770;DHT22;73763;48.936;9.300;2024-03-29T05:45:28;9.20;71.00
83770;DHT22;73763;48.936;9.300;2024-03-29T05:47:57;9.30;70.70
83770;DHT22;73763;48.936;9.300;2024-03-29T05:50:23;9.30;71.30
83770;DHT22;73763;48.936;9.300;2024-03-29T05:52:50;9.20;69.80
83770;DHT22;73763;48.936;9.300;2024-03-29T05:55:15;9.40;70.20
83770;DHT22;73763;48.936;9.300;2024-03-29T05:57:41;9.40;69.70
83770;DHT22;73763;48.936;9.300;2024-03-29T06:00:07;9.50;68.40
83770;DHT22;73763;48.936;9.300;2024-03-29T06:02:33;9.50;67.80
83770;DHT22;73763;48.936;9.300;2024-03-29T06:04:59;9.60;66.20
83770;DHT22;73763;48.936;9.300;2024-03-29T06:07:24;9.70;65.40
83770;DHT22;73763;48.936;9.300;2024-03-29T06:09:49;9.70;65.60
83770;DHT22;73763;48.936;9.300;2024-03-29T06:12:15;9.80;66.50
83770;DHT22;73763;48.936;9.300;2024-03-29T06:14:40;9.70;65.40
83770;DHT22;73763;48.936;9.300;2024-03-29T06:17:06;9.80;65.90
83770;DHT22;73763;48.936;9.300;2024-03-29T06:19:32;9.80;66.50
83770;DHT22;73763;48.936;9.300;2024-03-29T06:21:57;9.80;67.30
83770;DHT22;73763;48.936;9.300;2024-03-29T06:24:22;9.80;68.50
83770;DHT22;73763;48.936;9.300;2024-03-29T06:26:48;9.70;68.60
83770;DHT22;73763;48.936;9.300;2024-03-29T06:29:13;9.80;67.90
83770;DHT22;73763;48.936;9.300;2024-03-29T06:31:39;9.80;69.60
83770;DHT22;73763;48.936;9.300;2024-03-29T06:34:04;9.90;68.90
83770;DHT22;73763;48.936;9.300;2024-03-29T06:36:30;10.00;68.10
83770;DHT22;73763;48.936;9.300;2024-03-29T06:38:56;10.10;68.80
83770;DHT22;73763;48.936;9.300;2024-03-29T06:41:21;10.20;69.10
83770;DHT22;73763;48.936;9.300;2024-03-29T06:43:47;10.20;69.60
83770;DHT22;73763;48.936;9.300;2024-03-29T06:46:13;10.20;69.90
83770;DHT22;73763;48.936;9.300;2024-03-29T06:48:39;10.10;71.00
83770;DHT22;73763;48.936;9.300;2024-03-29T06:51:04;10.20;73.30
83770;DHT22;73763;48.936;9.300;2024-03-29T06:53:30;10.20;74.30
83770;DHT22;73763;48.936;9.300;2024-03-29T06:55:56;10.10;74.00
83770;DHT22;73763;48.936;9.300;2024-03-29T06:58:25;10.30;69.70
83770;DHT22;73763;48.936;9.300;2024-03-29T07:00:50;10.40;69.70
83770;DHT22;73763;48.936;9.300;2024-03-29T07:03:16;10.60;70.20
83770;DHT22;73763;48.936;9.300;2024-03-29T07:05:43;10.70;70.40
83770;DHT22;73763;48.936;9.300;2024-03-29T07:08:08;10.80;69.00
83770;DHT22;73763;48.936;9.300;2024-03-29T07:10:34;11.10;67.70
83770;DHT22;73763;48.936;9.300;2024-03-29T07:13:00;11.20;66.80
83770;DHT22;73763;48.936;9.300;2024-03-29T07:15:26;11.40;66.10
83770;DHT22;73763;48.936;9.300;2024-03-29T07:17:51;11.40;65.00
83770;DHT22;73763;48.936;9.300;2024-03-29T07:20:17;11.40;66.90
83770;DHT22;73763;48.936;9.300;2024-03-29T07:22:43;11.30;69.40
83770;DHT22;73763;48.936;9.300;2024-03-29T07:25:08;11.20;70.90
83770;DHT22;73763;48.936;9.300;2024-03-29T07:27:34;11.10;70.00
83770;DHT22;73763;48.936;9.300;2024-03-29T07:29:59;11.00;71.20
83770;DHT22;73763;48.936;9.300;2024-03-29T07:32:25;11.00;71.00
83770;DHT22;73763;48.936;9.300;2024-03-29T07:34:51;10.90;71.20
83770;DHT22;73763;48.936;9.300;2024-03-29T07:37:16;10.80;71.60
83770;DHT22;73763;48.936;9.300;2024-03-29T07:39:41;10.80;71.30
83770;DHT22;73763;48.936;9.300;2024-03-29T07:42:08;10.70;72.40
83770;DHT22;73763;48.936;9.300;2024-03-29T07:44:33;10.60;76.10
83770;DHT22;73763;48.936;9.300;2024-03-29T07:46:59;10.40;79.70
83770;DHT22;73763;48.936;9.300;2024-03-29T07:49:26;10.30;81.90
83770;DHT22;73763;48.936;9.300;2024-03-29T07:51:51;10.00;88.10
83770;DHT22;73763;48.936;9.300;2024-03-29T07:54:17;9.70;91.90
83770;DHT22;73763;48.936;9.300;2024-03-29T07:56:42;9.40;92.70
83770;DHT22;73763;48.936;9.300;2024-03-29T07:59:08;9.10;93.20
83770;DHT22;73763;48.936;9.300;2024-03-29T08:01:33;8.90;94.00
83770;DHT22;73763;48.936;9.300;2024-03-29T08:03:59;8.70;95.30
83770;DHT22;73763;48.936;9.300;2024-03-29T08:06:31;8.60;97.50
83770;DHT22;73763;48.936;9.300;2024-03-29T08:08:58;8.40;96.70
83770;DHT22;73763;48.936;9.300;2024-03-29T08:11:23;8.20;96.50
83770;DHT22;73763;48.936;9.300;2024-03-29T08:13:49;8.10;98.50
83770;DHT22;73763;48.936;9.300;2024-03-29T08:16:14;7.90;99.50
83770;DHT22;73763;48.936;9.300;2024-03-29T08:18:40;7.70;99.90
83770;DHT22;73763;48.936;9.300;2024-03-29T08:21:06;7.70;99.90
83770;DHT22;73763;48.936;9.300;2024-03-29T08:23:31;7.60;99.90
83770;DHT22;73763;48.936;9.300;2024-03-29T08:25:57;7.60;99.90
83770;DHT22;73763;48.936;9.300;2024-03-29T08:28:23;7.60;99.90
83770;DHT22;73763;48.936;9.300;2024-03-29T08:31:03;7.50;99.90
83770;DHT22;73763;48.936;9.300;2024-03-29T08:33:28;7.60;99.90
83770;DHT22;73763;48.936;9.300;2024-03-29T08:35:54;7.70;99.90
83770;DHT22;73763;48.936;9.300;2024-03-29T08:38:20;7.70;99.90
83770;DHT22;73763;48.936;9.300;2024-03-29T08:40:45;7.80;99.90
83770;DHT22;73763;48.936;9.300;2024-03-29T08:43:11;7.80;99.90
83770;DHT22;73763;48.936;9.300;2024-03-29T08:45:36;7.90;99.90
83770;DHT22;73763;48.936;9.300;2024-03-29T08:48:02;7.80;99.90
83770;DHT22;73763;48.936;9.300;2024-03-29T08:50:28;7.80;99.90
83770;DHT22;73763;48.936;9.300;2024-03-29T08:52:53;7.90;99.90
83770;DHT22;73763;48.936;9.300;2024-03-29T08:55:19;7.90;99.90
83770;DHT22;73763;48.936;9.300;2024-03-29T08:57:44;7.90;99.90
83770;DHT22;73763;48.936;9.300;2024-03-29T09:00:10;8.00;99.90
83770;DHT22;73763;48.936;9.300;2024-03-29T09:02:36;8.10;99.90
83770;DHT22;73763;48.936;9.300;2024-03-29T09:05:01;8.10;99.90
83770;DHT22;73763;48.936;9.300;2024-03-29T09:07:27;8.20;99.90
83770;DHT22;73763;48.936;9.300;2024-03-29T09:09:52;8.20;99.90
83770;DHT22;73763;48.936;9.300;2024-03-29T09:12:18;8.20;99.90
83770;DHT22;73763;48.936;9.300;2024-03-29T09:14:44;8.40;99.90
83770;DHT22;73763;48.936;9.300;2024-03-29T09:17:10;8.50;99.90
83770;DHT22;73763;48.936;9.300;2024-03-29T09:19:36;8.60;99.90
83770;DHT22;73763;48.936;9.300;2024-03-29T09:22:01;8.50;99.90
83770;DHT22;73763;48.936;9.300;2024-03-29T09:24:27;8.50;99.90
83770;DHT22;73763;48.936;9.300;2024-03-29T09:26:52;8.40;99.90
83770;DHT22;73763;48.936;9.300;2024-03-29T09:29:18;8.50;99.90
83770;DHT22;73763;48.936;9.300;2024-03-29T09:31:43;8.60;99.90
83770;DHT22;73763;48.936;9.300;2024-03-29T09:34:09;8.60;99.90
83770;DHT22;73763;48.936;9.300;2024-03-29T09:36:34;8.90;99.90
83770;DHT22;73763;48.936;9.300;2024-03-29T09:39:00;9.00;99.90
83770;DHT22;73763;48.936;9.300;2024-03-29T09:41:26;9.20;99.90
83770;DHT22;73763;48.936;9.300;2024-03-29T09:43:53;9.30;99.90
83770;DHT22;73763;48.936;9.300;2024-03-29T09:46:19;9.30;99.90
83770;DHT22;73763;48.936;9.300;2024-03-29T09:48:45;9.40;99.90
83770;DHT22;73763;48.936;9.300;2024-03-29T09:51:11;9.50;99.90
83770;DHT22;73763;48.936;9.300;2024-03-29T09:53:37;9.50;99.90
83770;DHT22;73763;48.936;9.300;2024-03-29T09:56:04;9.50;99.90
83770;DHT22;73763;48.936;9.300;2024-03-29T09:58:30;9.40;99.90
83770;DHT22;73763;48.936;9.300;2024-03-29T10:00:55;9.40;99.90
83770;DHT22;73763;48.936;9.300;2024-03-29T10:03:24;9.30;99.90
83770;DHT22;73763;48.936;9.300;2024-03-29T10:05:49;9.30;99.90
83770;DHT22;73763;48.936;9.300;2024-03-29T10:08:15;9.10;99.90
83770;DHT22;73763;48.936;9.300;2024-03-29T10:10:41;9.00;99.90
83770;DHT22;73763;48.936;9.300;2024-03-29T10:13:06;9.00;99.90
83770;DHT22;73763;48.936;9.300;2024-03-29T10:15:32;9.00;99.90
83770;DHT22;73763;48.936;9.300;2024-03-29T10:17:58;9.00;99.90
83770;DHT22;73763;48.936;9.300;2024-03-29T10:20:23;9.00;99.90
83770;DHT22;73763;48.936;9.300;2024-03-29T10:22:49;9.00;99.90
83770;DHT22;73763;48.936;9.300;2024-03-29T10:25:15;9.10;99.90
83770;DHT22;73763;48.936;9.300;2024-03-29T10:27:41;9.10;99.90
83770;DHT22;73763;48.936;9.300;2024-03-29T10:30:07;9.10;99.90
83770;DHT22;73763;48.936;9.300;2024-03-29T10:32:33;9.40;99.90
83770;DHT22;73763;48.936;9.300;2024-03-29T10:34:59;9.50;99.90
83770;DHT22;73763;48.936;9.300;2024-03-29T10:37:24;9.60;99.90
83770;DHT22;73763;48.936;9.300;2024-03-29T10:39:50;9.70;99.90
83770;DHT22;73763;48.936;9.300;2024-03-29T10:42:16;9.80;99.90
83770;DHT22;73763;48.936;9.300;2024-03-29T10:44:42;9.90;99.90
83770;DHT22;73763;48.936;9.300;2024-03-29T10:47:08;10.00;99.90
83770;DHT22;73763;48.936;9.300;2024-03-29T10:49:35;9.90;99.90
83770;DHT22;73763;48.936;9.300;2024-03-29T10:52:03;10.10;99.90
83770;DHT22;73763;48.936;9.300;2024-03-29T10:54:29;10.10;99.90
83770;DHT22;73763;48.936;9.300;2024-03-29T10:57:00;10.30;99.90
83770;DHT22;73763;48.936;9.300;2024-03-29T10:59:44;10.50;99.90
83770;DHT22;73763;48.936;9.300;2024-03-29T11:02:30;10.60;99.90
83770;DHT22;73763;48.936;9.300;2024-03-29T11:04:58;10.70;99.90
83770;DHT22;73763;48.936;9.300;2024-03-29T11:07:26;10.90;99.90
83770;DHT22;73763;48.936;9.300;2024-03-29T11:09:56;11.00;99.90
83770;DHT22;73763;48.936;9.300;2024-03-29T11:12:23;11.10;99.90
83770;DHT22;73763;48.936;9.300;2024-03-29T11:15:02;11.20;99.90
83770;DHT22;73763;48.936;9.300;2024-03-29T11:17:29;11.40;99.90
83770;DHT22;73763;48.936;9.300;2024-03-29T11:19:54;11.40;99.90
83770;DHT22;73763;48.936;9.300;2024-03-29T11:22:20;11.50;99.90
83770;DHT22;73763;48.936;9.300;2024-03-29T11:24:46;11.60;99.90
83770;DHT22;73763;48.936;9.300;2024-03-29T11:27:11;11.90;99.90
83770;DHT22;73763;48.936;9.300;2024-03-29T11:29:41;12.10;99.90
83770;DHT22;73763;48.936;9.300;2024-03-29T11:32:07;12.30;99.90
83770;DHT22;73763;48.936;9.300;2024-03-29T11:34:32;12.60;99.90
83770;DHT22;73763;48.936;9.300;2024-03-29T11:37:09;12.80;99.90
83770;DHT22;73763;48.936;9.300;2024-03-29T11:39:35;12.90;99.90
83770;DHT22;73763;48.936;9.300;2024-03-29T11:42:01;12.90;99.90
83770;DHT22;73763;48.936;9.300;2024-03-29T11:44:27;12.90;99.90
83770;DHT22;73763;48.936;9.300;2024-03-29T11:46:56;13.00;99.90
83770;DHT22;73763;48.936;9.300;2024-03-29T11:49:23;13.10;99.90
83770;DHT22;73763;48.936;9.300;2024-03-29T11:51:48;13.10;99.90
83770;DHT22;73763;48.936;9.300;2024-03-29T11:54:14;13.20;99.90
83770;DHT22;73763;48.936;9.300;2024-03-29T11:56:40;13.20;99.90
83770;DHT22;73763;48.936;9.300;2024-03-29T11:59:07;13.30;99.90
83770;DHT22;73763;48.936;9.300;2024-03-29T12:01:33;13.40;99.90
83770;DHT22;73763;48.936;9.300;2024-03-29T12:03:59;13.50;99.80
83770;DHT22;73763;48.936;9.300;2024-03-29T12:06:24;13.50;99.90
83770;DHT22;73763;48.936;9.300;2024-03-29T12:08:50;13.50;99.40
83770;DHT22;73763;48.936;9.300;2024-03-29T12:11:16;13.30;99.40
83770;DHT22;73763;48.936;9.300;2024-03-29T12:13:41;13.30;99.90
83770;DHT22;73763;48.936;9.300;2024-03-29T12:16:09;13.30;99.90
83770;DHT22;73763;48.936;9.300;2024-03-29T12:18:35;13.50;99.90
83770;DHT22;73763;48.936;9.300;2024-03-29T12:21:00;13.50;99.90
83770;DHT22;73763;48.936;9.300;2024-03-29T12:23:26;13.60;99.90
83770;DHT22;73763;48.936;9.300;2024-03-29T12:25:54;13.60;99.90
83770;DHT22;73763;48.936;9.300;2024-03-29T12:28:20;13.90;99.90
83770;DHT22;73763;48.936;9.300;2024-03-29T12:30:46;14.10;99.90
83770;DHT22;73763;48.936;9.300;2024-03-29T12:33:17;14.40;99.90
83770;DHT22;73763;48.936;9.300;2024-03-29T12:35:43;14.70;99.30
83770;DHT22;73763;48.936;9.300;2024-03-29T12:38:14;15.00;98.70
83770;DHT22;73763;48.936;9.300;2024-03-29T12:40:41;15.30;97.70
83770;DHT22;73763;48.936;9.300;2024-03-29T12:43:07;15.70;97.30
83770;DHT22;73763;48.936;9.300;2024-03-29T12:45:33;16.10;96.20
83770;DHT22;73763;48.936;9.300;2024-03-29T12:47:59;16.40;96.10
83770;DHT22;73763;48.936;9.300;2024-03-29T12:50:33;16.70;94.70
83770;DHT22;73763;48.936;9.300;2024-03-29T12:53:01;16.90;94.30
83770;DHT22;73763;48.936;9.300;2024-03-29T12:55:27;17.40;93.20
83770;DHT22;73763;48.936;9.300;2024-03-29T12:57:53;17.90;92.90
83770;DHT22;73763;48.936;9.300;2024-03-29T13:00:20;18.40;92.80
83770;DHT22;73763;48.936;9.300;2024-03-29T13:02:45;18.80;91.50
83770;DHT22;73763;48.936;9.300;2024-03-29T13:05:11;19.50;90.40
83770;DHT22;73763;48.936;9.300;2024-03-29T13:07:36;19.60;86.90
83770;DHT22;73763;48.936;9.300;2024-03-29T13:10:03;19.10;86.60
83770;DHT22;73763;48.936;9.300;2024-03-29T13:12:29;18.30;87.90
83770;DHT22;73763;48.936;9.300;2024-03-29T13:14:55;18.10;91.80
83770;DHT22;73763;48.936;9.300;2024-03-29T13:17:21;18.20;93.80
83770;DHT22;73763;48.936;9.300;2024-03-29T13:19:46;18.50;93.20
83770;DHT22;73763;48.936;9.300;2024-03-29T13:22:12;18.80;93.10
83770;DHT22;73763;48.936;9.300;2024-03-29T13:24:37;19.20;92.10
83770;DHT22;73763;48.936;9.300;2024-03-29T13:27:03;19.50;91.70
83770;DHT22;73763;48.936;9.300;2024-03-29T13:29:29;20.40;90.10
83770;DHT22;73763;48.936;9.300;2024-03-29T13:31:55;22.00;86.20
83770;DHT22;73763;48.936;9.300;2024-03-29T13:34:20;23.20;75.00
83770;DHT22;73763;48.936;9.300;2024-03-29T13:36:46;24.00;67.00
83770;DHT22;73763;48.936;9.300;2024-03-29T13:39:11;24.30;62.00
83770;DHT22;73763;48.936;9.300;2024-03-29T13:41:37;24.20;60.70
83770;DHT22;73763;48.936;9.300;2024-03-29T13:44:03;24.30;61.40
83770;DHT22;73763;48.936;9.300;2024-03-29T13:46:28;24.20;59.60
83770;DHT22;73763;48.936;9.300;2024-03-29T13:48:54;23.50;59.50
83770;DHT22;73763;48.936;9.300;2024-03-29T13:51:19;23.30;61.00
83770;DHT22;73763;48.936;9.300;2024-03-29T13:53:45;22.60;62.10
83770;DHT22;73763;48.936;9.300;2024-03-29T13:56:10;21.90;63.80
83770;DHT22;73763;48.936;9.300;2024-03-29T13:58:36;21.40;65.20
83770;DHT22;73763;48.936;9.300;2024-03-29T14:01:02;21.20;69.10
83770;DHT22;73763;48.936;9.300;2024-03-29T14:03:28;20.90;70.70
83770;DHT22;73763;48.936;9.300;2024-03-29T14:05:53;21.00;71.60
83770;DHT22;73763;48.936;9.300;2024-03-29T14:08:19;21.80;69.40
83770;DHT22;73763;48.936;9.300;2024-03-29T14:10:44;22.50;65.80
83770;DHT22;73763;48.936;9.300;2024-03-29T14:13:10;23.20;61.70
83770;DHT22;73763;48.936;9.300;2024-03-29T14:15:35;23.90;60.00
83770;DHT22;73763;48.936;9.300;2024-03-29T14:18:01;23.90;55.50
83770;DHT22;73763;48.936;9.300;2024-03-29T14:20:26;23.50;55.60
83770;DHT22;73763;48.936;9.300;2024-03-29T14:22:52;23.70;57.20
83770;DHT22;73763;48.936;9.300;2024-03-29T14:25:18;24.10;56.20
83770;DHT22;73763;48.936;9.300;2024-03-29T14:27:43;24.40;56.30
83770;DHT22;73763;48.936;9.300;2024-03-29T14:30:09;24.90;55.40
83770;DHT22;73763;48.936;9.300;2024-03-29T14:32:35;25.10;53.40
83770;DHT22;73763;48.936;9.300;2024-03-29T14:35:00;25.10;51.40
83770;DHT22;73763;48.936;9.300;2024-03-29T14:37:26;25.10;48.60
83770;DHT22;73763;48.936;9.300;2024-03-29T14:39:51;24.50;49.80
83770;DHT22;73763;48.936;9.300;2024-03-29T14:42:17;24.10;50.50
83770;DHT22;73763;48.936;9.300;2024-03-29T14:44:43;23.80;52.70
83770;DHT22;73763;48.936;9.300;2024-03-29T14:47:08;23.50;51.80
83770;DHT22;73763;48.936;9.300;2024-03-29T14:49:34;23.10;53.80
83770;DHT22;73763;48.936;9.300;2024-03-29T14:51:59;22.70;53.40
83770;DHT22;73763;48.936;9.300;2024-03-29T14:54:25;22.20;53.60
83770;DHT22;73763;48.936;9.300;2024-03-29T14:56:52;22.60;53.40
83770;DHT22;73763;48.936;9.300;2024-03-29T14:59:18;23.10;52.70
83770;DHT22;73763;48.936;9.300;2024-03-29T15:01:43;23.20;51.70
83770;DHT22;73763;48.936;9.300;2024-03-29T15:04:09;23.10;51.00
83770;DHT22;73763;48.936;9.300;2024-03-29T15:06:34;22.60;52.60
83770;DHT22;73763;48.936;9.300;2024-03-29T15:09:00;22.60;53.30
83770;DHT22;73763;48.936;9.300;2024-03-29T15:11:26;22.50;53.00
83770;DHT22;73763;48.936;9.300;2024-03-29T15:13:52;22.20;54.00
83770;DHT22;73763;48.936;9.300;2024-03-29T15:16:17;22.50;55.00
83770;DHT22;73763;48.936;9.300;2024-03-29T15:18:43;22.40;57.00
83770;DHT22;73763;48.936;9.300;2024-03-29T15:21:09;22.60;56.70
83770;DHT22;73763;48.936;9.300;2024-03-29T15:23:34;23.00;56.10
83770;DHT22;73763;48.936;9.300;2024-03-29T15:26:01;23.20;55.30
83770;DHT22;73763;48.936;9.300;2024-03-29T15:28:27;23.30;55.90
83770;DHT22;73763;48.936;9.300;2024-03-29T15:30:52;23.40;55.90